createdAt,value
2019-02-02T00:02:04.491Z,99.90
2019-02-02T00:05:04.849Z,99.90
2019-02-02T00:08:05.584Z,99.90
2019-02-02T00:11:06.239Z,99.90
2019-02-02T00:14:07.040Z,99.90
2019-02-02T00:17:07.903Z,99.90
2019-02-02T00:20:08.488Z,99.90
2019-02-02T00:23:09.124Z,99.90
2019-02-02T00:26:09.745Z,99.90
2019-02-02T00:29:10.178Z,99.90
2019-02-02T00:32:10.763Z,99.90
2019-02-02T00:35:11.318Z,99.90
2019-02-02T00:38:12.066Z,99.90
2019-02-02T00:41:12.866Z,99.90
2019-02-02T00:44:13.480Z,99.90
2019-02-02T00:47:14.203Z,99.90
2019-02-02T00:50:14.889Z,99.90
2019-02-02T00:53:15.871Z,99.90
2019-02-02T00:56:16.455Z,99.90
2019-02-02T00:59:17.109Z,99.90
2019-02-02T01:02:17.981Z,99.90
2019-02-02T01:05:18.459Z,99.90
2019-02-02T01:08:19.212Z,99.90
2019-02-02T01:11:19.613Z,99.90
2019-02-02T01:14:20.898Z,99.90
2019-02-02T01:17:21.401Z,99.90
2019-02-02T01:20:21.728Z,99.90
2019-02-02T01:23:23.198Z,99.90
2019-02-02T01:26:23.998Z,99.90
2019-02-02T01:29:24.676Z,99.90
2019-02-02T01:32:25.258Z,99.90
2019-02-02T01:35:25.927Z,99.90
2019-02-02T01:38:26.357Z,99.90
2019-02-02T01:41:27.311Z,99.90
2019-02-02T01:44:28.477Z,99.90
2019-02-02T01:47:28.796Z,99.90
2019-02-02T01:50:29.450Z,99.90
2019-02-02T01:53:30.553Z,99.90
2019-02-02T01:56:31.113Z,99.90
2019-02-02T01:59:31.460Z,99.90
2019-02-02T02:02:31.689Z,99.90
2019-02-02T02:05:32.547Z,99.90
2019-02-02T02:08:33.162Z,99.90
2019-02-02T02:11:33.625Z,99.90
2019-02-02T02:14:34.065Z,99.90
2019-02-02T02:17:34.931Z,99.90
2019-02-02T02:20:35.704Z,99.90
2019-02-02T02:23:36.166Z,99.90
2019-02-02T02:26:37.042Z,99.90
2019-02-02T02:29:38.319Z,99.90
2019-02-02T02:32:39.156Z,99.90
2019-02-02T02:35:39.726Z,99.90
2019-02-02T02:38:40.141Z,99.90
2019-02-02T02:41:41.309Z,99.90
2019-02-02T02:44:45.287Z,99.90
2019-02-02T02:47:46.306Z,99.90
2019-02-02T02:50:46.784Z,99.90
2019-02-02T02:53:47.486Z,99.90
2019-02-02T02:56:48.071Z,99.90
2019-02-02T02:59:48.622Z,99.90
2019-02-02T03:02:49.214Z,99.90
2019-02-02T03:05:49.917Z,99.90
2019-02-02T03:08:50.393Z,99.90
2019-02-02T03:11:50.713Z,99.90
2019-02-02T03:14:51.179Z,99.90
2019-02-02T03:17:51.669Z,99.90
2019-02-02T03:20:52.041Z,99.90
2019-02-02T03:23:52.733Z,99.90
2019-02-02T03:26:53.498Z,99.90
2019-02-02T03:29:54.179Z,99.90
2019-02-02T03:32:54.466Z,99.90
2019-02-02T03:35:54.863Z,99.90
2019-02-02T03:38:56.233Z,99.90
2019-02-02T03:41:56.820Z,99.90
2019-02-02T03:44:57.231Z,99.90
2019-02-02T03:47:58.445Z,99.90
2019-02-02T03:50:58.774Z,99.90
2019-02-02T03:54:08.131Z,99.90
2019-02-02T03:57:01.395Z,99.90
2019-02-02T04:00:02.151Z,99.90
2019-02-02T04:03:03.161Z,99.90
2019-02-02T04:06:04.706Z,99.90
2019-02-02T04:09:05.120Z,99.90
2019-02-02T04:12:05.541Z,99.90
2019-02-02T04:15:06.322Z,99.90
2019-02-02T04:18:07.361Z,99.90
2019-02-02T04:21:08.553Z,99.90
2019-02-02T04:24:09.137Z,99.90
2019-02-02T04:27:10.390Z,99.90
2019-02-02T04:30:11.450Z,99.90
2019-02-02T04:33:12.525Z,99.90
2019-02-02T04:36:13.222Z,99.90
2019-02-02T04:39:13.643Z,99.90
2019-02-02T04:42:14.074Z,99.90
2019-02-02T04:45:14.828Z,99.90
2019-02-02T04:48:15.562Z,99.90
2019-02-02T04:51:16.186Z,99.90
2019-02-02T04:54:17.041Z,99.90
2019-02-02T04:57:17.544Z,99.90
2019-02-02T05:00:18.008Z,99.90
2019-02-02T05:03:18.755Z,99.90
2019-02-02T05:06:20.007Z,99.90
2019-02-02T05:09:20.545Z,99.90
2019-02-02T05:12:20.952Z,99.90
2019-02-02T05:15:21.497Z,99.90
2019-02-02T05:18:22.073Z,99.90
2019-02-02T05:21:22.705Z,99.90
2019-02-02T05:24:23.630Z,99.90
2019-02-02T05:27:23.961Z,99.90
2019-02-02T05:30:24.280Z,99.90
2019-02-02T05:33:24.612Z,99.90
2019-02-02T05:36:24.977Z,99.90
2019-02-02T05:39:25.456Z,99.90
2019-02-02T05:42:26.037Z,99.90
2019-02-02T05:45:26.485Z,99.90
2019-02-02T05:48:27.166Z,99.90
2019-02-02T05:51:27.449Z,99.90
2019-02-02T05:54:27.882Z,99.90
2019-02-02T05:57:29.069Z,99.90
2019-02-02T06:00:34.187Z,99.90
2019-02-02T06:03:34.625Z,99.90
2019-02-02T06:06:35.101Z,99.90
2019-02-02T06:09:35.391Z,99.90
2019-02-02T06:12:36.146Z,99.90
2019-02-02T06:15:36.521Z,99.90
2019-02-02T06:18:36.837Z,99.90
2019-02-02T06:21:37.861Z,99.90
2019-02-02T06:24:38.482Z,99.90
2019-02-02T06:27:38.848Z,99.90
2019-02-02T06:30:39.503Z,99.90
2019-02-02T06:33:39.964Z,99.90
2019-02-02T06:36:40.563Z,99.90
2019-02-02T06:39:40.944Z,99.90
2019-02-02T06:42:41.335Z,99.90
2019-02-02T06:45:41.872Z,99.90
2019-02-02T06:48:42.569Z,99.90
2019-02-02T06:51:42.940Z,99.90
2019-02-02T06:54:43.615Z,99.90
2019-02-02T06:57:44.173Z,99.90
2019-02-02T07:00:44.786Z,99.90
2019-02-02T07:03:45.186Z,99.90
2019-02-02T07:06:45.588Z,99.90
2019-02-02T07:09:45.905Z,99.90
2019-02-02T07:12:47.139Z,99.90
2019-02-02T07:15:47.917Z,99.90
2019-02-02T07:18:48.372Z,99.90
2019-02-02T07:21:48.790Z,99.90
2019-02-02T07:24:50.148Z,99.90
2019-02-02T07:27:50.822Z,99.90
2019-02-02T07:30:51.157Z,99.90
2019-02-02T07:33:52.265Z,99.90
2019-02-02T07:36:52.616Z,99.90
2019-02-02T07:39:53.830Z,99.90
2019-02-02T07:42:54.189Z,99.90
2019-02-02T07:45:54.806Z,99.90
2019-02-02T07:48:55.770Z,99.90
2019-02-02T07:51:59.692Z,99.90
2019-02-02T07:55:00.322Z,99.90
2019-02-02T07:58:01.466Z,99.90
2019-02-02T08:01:02.242Z,99.90
2019-02-02T08:04:03.664Z,99.90
2019-02-02T08:07:04.132Z,99.90
2019-02-02T08:10:04.745Z,99.90
2019-02-02T08:13:05.057Z,99.90
2019-02-02T08:16:05.833Z,99.90
2019-02-02T08:19:06.422Z,99.90
2019-02-02T08:22:07.225Z,99.90
2019-02-02T08:25:08.591Z,99.90
2019-02-02T08:28:09.508Z,99.90
2019-02-02T08:31:10.230Z,99.90
2019-02-02T08:34:10.458Z,99.90
2019-02-02T08:37:11.673Z,99.90
2019-02-02T08:40:12.066Z,99.90
2019-02-02T08:43:13.279Z,99.90
2019-02-02T08:46:13.810Z,99.90
2019-02-02T08:49:14.220Z,99.90
2019-02-02T08:52:14.849Z,99.90
2019-02-02T08:55:15.217Z,99.90
2019-02-02T08:58:15.715Z,99.90
2019-02-02T09:01:16.988Z,99.90
2019-02-02T09:04:17.637Z,99.90
2019-02-02T09:07:18.500Z,99.90
2019-02-02T09:10:19.304Z,99.90
2019-02-02T09:13:19.853Z,99.90
2019-02-02T09:16:20.968Z,99.90
2019-02-02T09:19:21.613Z,99.90
2019-02-02T09:22:22.277Z,99.90
2019-02-02T09:25:23.086Z,99.90
2019-02-02T09:28:23.561Z,99.90
2019-02-02T09:31:24.274Z,99.90
2019-02-02T09:34:25.433Z,99.90
2019-02-02T09:37:26.628Z,99.90
2019-02-02T09:40:27.433Z,99.90
2019-02-02T09:43:28.523Z,99.90
2019-02-02T09:46:29.223Z,99.90
2019-02-02T09:49:30.421Z,99.90
2019-02-02T09:52:31.064Z,99.90
2019-02-02T09:55:31.699Z,99.90
2019-02-02T09:58:32.307Z,99.90
2019-02-02T10:01:32.921Z,99.90
2019-02-02T10:04:33.737Z,99.90
2019-02-02T10:07:34.161Z,99.90
2019-02-02T10:10:35.833Z,99.90
2019-02-02T10:47:32.721Z,95.10
2019-02-02T10:50:34.562Z,92.60
2019-02-02T10:53:36.056Z,84.20
2019-02-02T10:56:37.667Z,75.90
2019-02-02T10:59:38.963Z,66.80
2019-02-02T11:02:40.190Z,66.60
2019-02-02T11:05:41.985Z,70.00
2019-02-02T11:08:43.302Z,61.30
2019-02-02T11:11:44.683Z,62.50
2019-02-02T11:14:45.753Z,63.40
2019-02-02T11:17:46.845Z,66.10
2019-02-02T11:20:48.585Z,70.70
2019-02-02T11:23:50.049Z,72.40
2019-02-02T11:26:39.330Z,69.70
2019-02-02T11:29:47.889Z,67.40
2019-02-02T11:32:49.457Z,70.70
2019-02-02T11:35:50.413Z,72.40
2019-02-02T11:38:52.434Z,71.90
2019-02-02T11:41:41.744Z,69.40
2019-02-02T11:44:50.250Z,67.20
2019-02-02T11:47:51.795Z,68.70
2019-02-02T11:50:53.654Z,68.40
2019-02-02T11:53:55.174Z,66.90
2019-02-02T11:56:56.837Z,72.60
2019-02-02T11:59:58.351Z,73.90
2019-02-02T12:02:59.942Z,77.00
2019-02-02T12:06:01.334Z,75.30
2019-02-02T12:09:02.057Z,75.30
2019-02-02T12:12:02.388Z,77.60
2019-02-02T12:15:03.226Z,78.00
2019-02-02T12:18:04.743Z,80.40
2019-02-02T12:21:05.757Z,82.40
2019-02-02T12:24:14.397Z,82.00
2019-02-02T12:27:08.800Z,86.00
2019-02-02T12:30:09.825Z,91.90
2019-02-02T12:33:10.368Z,96.50
2019-02-02T12:36:10.832Z,99.90
2019-02-02T12:39:11.242Z,99.90
2019-02-02T12:42:12.460Z,99.90
2019-02-02T12:45:13.049Z,99.90
2019-02-02T12:48:13.517Z,99.90
2019-02-02T12:51:13.965Z,99.90
2019-02-02T12:54:14.536Z,99.90
2019-02-02T12:57:15.581Z,99.90
2019-02-02T13:00:16.241Z,99.90
2019-02-02T13:03:17.824Z,99.90
2019-02-02T13:06:18.885Z,99.90
2019-02-02T13:09:20.071Z,99.90
2019-02-02T13:12:21.371Z,99.90
2019-02-02T13:15:22.372Z,99.90
2019-02-02T13:18:23.514Z,99.90
2019-02-02T13:21:24.438Z,99.90
2019-02-02T13:24:25.742Z,99.90
2019-02-02T13:27:26.579Z,99.90
2019-02-02T13:30:27.593Z,99.90
2019-02-02T13:33:28.365Z,99.90
2019-02-02T13:36:29.017Z,99.90
2019-02-02T13:39:29.935Z,99.90
2019-02-02T13:42:31.553Z,99.80
2019-02-02T13:45:32.856Z,95.40
2019-02-02T13:48:33.619Z,92.20
2019-02-02T13:51:34.340Z,92.60
2019-02-02T13:54:35.187Z,93.20
2019-02-02T13:57:36.295Z,93.00
2019-02-02T14:00:37.239Z,92.50
2019-02-02T14:03:38.033Z,93.20
2019-02-02T14:06:38.586Z,95.40
2019-02-02T14:09:38.938Z,97.10
2019-02-02T14:12:40.376Z,94.30
2019-02-02T14:15:41.570Z,96.50
2019-02-02T14:18:42.060Z,99.90
2019-02-02T14:21:42.460Z,99.90
2019-02-02T14:24:43.012Z,99.90
2019-02-02T14:27:43.508Z,99.90
2019-02-02T14:30:44.218Z,99.90
2019-02-02T14:33:44.833Z,99.90
2019-02-02T14:36:46.091Z,99.90
2019-02-02T14:39:49.118Z,99.90
2019-02-02T14:42:49.047Z,99.90
2019-02-02T14:45:49.658Z,99.90
2019-02-02T14:48:49.997Z,99.90
2019-02-02T14:51:50.732Z,99.90
2019-02-02T14:54:51.262Z,99.90
2019-02-02T14:57:52.214Z,99.90
2019-02-02T15:00:54.055Z,99.90
2019-02-02T15:03:55.166Z,99.90
2019-02-02T15:06:55.686Z,99.90
2019-02-02T15:09:56.286Z,99.90
2019-02-02T15:12:56.862Z,99.90
2019-02-02T15:15:57.557Z,99.90
2019-02-02T15:18:58.192Z,99.90
2019-02-02T15:21:58.654Z,99.90
2019-02-02T15:24:58.965Z,99.90
2019-02-02T15:27:59.212Z,99.90
2019-02-02T15:30:59.846Z,99.90
2019-02-02T15:34:00.356Z,99.90
2019-02-02T15:36:48.905Z,99.90
2019-02-02T15:39:56.796Z,99.90
2019-02-02T15:42:57.501Z,99.90
2019-02-02T15:45:58.021Z,99.90
2019-02-02T15:48:58.396Z,99.90
2019-02-02T15:51:58.813Z,99.90
2019-02-02T15:54:59.986Z,99.90
2019-02-02T15:58:01.067Z,99.90
2019-02-02T16:01:02.271Z,99.90
2019-02-02T16:04:03.509Z,99.90
2019-02-02T16:07:04.694Z,99.90
2019-02-02T16:10:05.182Z,99.90
2019-02-02T16:13:06.220Z,99.90
2019-02-02T16:16:06.857Z,99.90
2019-02-02T16:19:07.958Z,99.90
2019-02-02T16:21:56.687Z,99.90
2019-02-02T16:28:31.882Z,99.90
2019-02-02T16:31:32.242Z,99.90
2019-02-02T16:34:33.427Z,99.90
2019-02-02T16:37:36.269Z,99.90
2019-02-02T16:40:36.270Z,99.90
2019-02-02T16:43:37.466Z,99.90
2019-02-02T16:46:38.734Z,99.90
2019-02-02T16:49:39.275Z,99.90
2019-02-02T16:52:40.325Z,99.90
2019-02-02T16:55:40.776Z,99.90
2019-02-02T16:58:41.465Z,99.90
2019-02-02T17:01:41.898Z,99.90
2019-02-02T17:04:44.458Z,99.90
2019-02-02T17:07:46.390Z,99.90
2019-02-02T17:10:47.063Z,99.90
2019-02-02T17:13:48.353Z,99.90
2019-02-02T17:16:49.449Z,99.90
2019-02-02T17:19:50.059Z,99.90
2019-02-02T17:22:51.234Z,99.90
2019-02-02T17:25:52.169Z,99.90
2019-02-02T17:28:52.511Z,99.90
2019-02-02T17:31:53.013Z,99.90
2019-02-02T17:34:53.973Z,99.90
2019-02-02T17:37:54.804Z,99.90
2019-02-02T17:40:55.179Z,99.90
2019-02-02T17:43:55.943Z,99.90
2019-02-02T17:46:56.530Z,99.90
2019-02-02T17:49:56.996Z,99.90
2019-02-02T17:52:57.351Z,99.90
2019-02-02T17:55:58.020Z,99.90
2019-02-02T17:58:58.649Z,99.90
2019-02-02T18:01:59.224Z,99.90
2019-02-02T18:05:00.612Z,99.90
2019-02-02T18:08:01.411Z,99.90
2019-02-02T18:11:02.455Z,99.90
2019-02-02T18:14:02.985Z,99.90
2019-02-02T18:17:03.310Z,99.90
2019-02-02T18:20:03.579Z,99.90
2019-02-02T18:23:04.173Z,99.90
2019-02-02T18:26:04.896Z,99.90
2019-02-02T18:29:05.409Z,99.90
2019-02-02T18:32:12.878Z,99.90
2019-02-02T18:35:08.592Z,99.90
2019-02-02T18:38:09.058Z,99.90
2019-02-02T18:41:09.609Z,99.90
2019-02-02T18:44:10.166Z,99.90
2019-02-02T18:47:10.516Z,99.90
2019-02-02T18:50:11.770Z,99.90
2019-02-02T18:53:12.131Z,99.90
2019-02-02T18:56:12.721Z,99.90
2019-02-02T18:59:13.324Z,99.90
2019-02-02T19:02:13.839Z,99.90
2019-02-02T19:05:14.378Z,99.90
2019-02-02T19:08:15.467Z,99.90
2019-02-02T19:11:16.176Z,99.90
2019-02-02T19:17:18.442Z,99.90
2019-02-02T19:20:26.405Z,99.90
2019-02-02T19:23:26.828Z,99.90
2019-02-02T19:26:27.651Z,99.90
2019-02-02T19:29:28.026Z,99.90
2019-02-02T19:32:29.160Z,99.90
2019-02-02T19:35:29.537Z,99.90
2019-02-02T19:38:30.152Z,99.90
2019-02-02T19:41:30.942Z,99.90
2019-02-02T19:44:31.696Z,99.90
2019-02-02T19:47:34.627Z,99.90
2019-02-02T19:50:34.984Z,99.90
2019-02-02T19:53:35.836Z,99.90
2019-02-02T19:56:37.206Z,99.90
2019-02-02T19:59:37.615Z,99.90
2019-02-02T20:02:38.156Z,99.90
2019-02-02T20:05:39.389Z,99.90
2019-02-02T20:08:39.742Z,99.90
2019-02-02T20:11:40.744Z,99.90
2019-02-02T20:14:41.350Z,99.90
2019-02-02T20:17:42.089Z,99.90
2019-02-02T20:20:43.128Z,99.90
2019-02-02T20:23:43.536Z,99.90
2019-02-02T20:26:44.728Z,99.90
2019-02-02T20:29:45.246Z,99.90
2019-02-02T20:32:46.233Z,99.90
2019-02-02T20:35:48.553Z,99.90
2019-02-02T20:38:49.318Z,99.90
2019-02-02T20:41:50.430Z,99.90
2019-02-02T20:44:51.134Z,99.90
2019-02-02T20:47:51.436Z,99.90
2019-02-02T20:50:51.788Z,99.90
2019-02-02T20:53:52.390Z,99.90
2019-02-02T20:56:52.995Z,99.90
2019-02-02T20:59:53.681Z,99.90
2019-02-02T21:02:55.178Z,99.90
2019-02-02T21:05:55.884Z,99.90
2019-02-02T21:08:56.887Z,99.90
2019-02-02T21:11:57.411Z,99.90
2019-02-02T21:14:57.847Z,99.90
2019-02-02T21:17:58.328Z,99.90
2019-02-02T21:20:58.999Z,99.90
2019-02-02T21:23:59.430Z,99.90
2019-02-02T21:27:00.492Z,99.90
2019-02-02T21:30:01.048Z,99.90
2019-02-02T21:33:01.814Z,99.90
2019-02-02T21:36:04.292Z,99.90
2019-02-02T21:39:05.227Z,99.90
2019-02-02T21:42:05.600Z,99.90
2019-02-02T21:45:05.985Z,99.90
2019-02-02T21:48:06.387Z,99.90
2019-02-02T21:51:06.898Z,99.90
2019-02-02T21:54:08.320Z,99.90
2019-02-02T21:57:08.683Z,99.90
2019-02-02T22:00:09.963Z,99.90
2019-02-02T22:03:10.880Z,99.90
2019-02-02T22:06:15.520Z,99.90
2019-02-02T22:09:13.996Z,99.90
2019-02-02T22:12:14.773Z,99.90
2019-02-02T22:15:17.520Z,99.90
2019-02-02T22:18:18.246Z,99.90
2019-02-02T22:21:18.581Z,99.90
2019-02-02T22:24:19.182Z,99.90
2019-02-02T22:27:19.481Z,99.90
2019-02-02T22:30:19.878Z,99.90
2019-02-02T22:33:20.385Z,99.90
2019-02-02T22:36:27.519Z,99.90
2019-02-02T22:39:23.126Z,99.90
2019-02-02T22:42:23.705Z,99.90
2019-02-02T22:45:24.034Z,99.90
2019-02-02T22:48:24.880Z,99.90
2019-02-02T22:51:25.706Z,99.90
2019-02-02T22:54:26.379Z,99.90
2019-02-02T22:57:27.509Z,99.90
2019-02-02T23:00:47.261Z,99.90
2019-02-02T23:03:51.265Z,99.90
2019-02-02T23:06:51.938Z,99.90
2019-02-02T23:09:52.535Z,99.90
2019-02-02T23:12:53.282Z,99.90
2019-02-02T23:15:53.666Z,99.90
2019-02-02T23:18:54.854Z,99.90
2019-02-02T23:21:55.685Z,99.90
2019-02-02T23:24:56.056Z,99.90
2019-02-02T23:27:56.439Z,99.90
2019-02-02T23:30:57.386Z,99.90
2019-02-02T23:33:58.599Z,99.90
2019-02-02T23:36:59.160Z,99.90
2019-02-02T23:39:59.966Z,99.90
2019-02-02T23:43:00.641Z,99.90
2019-02-02T23:46:01.027Z,99.90
2019-02-02T23:49:01.680Z,99.90
2019-02-02T23:52:02.743Z,99.90
2019-02-02T23:55:03.049Z,99.90
2019-02-02T23:58:03.453Z,99.90
